Time;durP1;ratioP1;P1;durP2;ratioP2;P2;SDS_P1;SDS_P2;PMS_P1;PMS_P2;Temp;Humidity;BMP_temperature;BMP_pressure;BME280_temperature;BME280_humidity;BME280_pressure;Samples;Min_cycle;Max_cycle;Signal;HPM_P1;HPM_P2
2023/01/03 00:01:11;;;;;;;3.85;1.60;;;;;;;-145.63;100.00;61273.97;4781158;30;20042;-66
2023/01/03 00:03:37;;;;;;;5.55;1.90;;;;;;;-145.63;100.00;61273.97;4792835;30;20028;-67
2023/01/03 00:06:03;;;;;;;3.58;1.80;;;;;;;-145.63;100.00;61273.97;4781055;30;20031;-67
2023/01/03 00:08:28;;;;;;;3.92;1.90;;;;;;;-145.63;100.00;61273.97;4779881;30;20212;-66
2023/01/03 00:10:54;;;;;;;3.15;1.80;;;;;;;-145.63;100.00;61273.97;4794875;30;20091;-67
2023/01/03 00:13:20;;;;;;;2.70;1.98;;;;;;;-145.63;100.00;61273.97;4780839;30;20069;-66
2023/01/03 00:15:45;;;;;;;3.67;1.52;;;;;;;-145.63;100.00;61273.97;4780926;30;20116;-67
2023/01/03 00:18:11;;;;;;;3.42;1.75;;;;;;;-145.63;100.00;61273.97;4794360;30;20031;-67
2023/01/03 00:20:37;;;;;;;5.95;1.83;;;;;;;-145.63;100.00;61273.97;4781004;30;20028;-67
2023/01/03 00:23:02;;;;;;;3.40;1.70;;;;;;;-145.63;100.00;61273.97;4781561;30;20319;-67
2023/01/03 00:25:28;;;;;;;2.85;1.98;;;;;;;-145.63;100.00;61273.97;4780732;30;20024;-67
2023/01/03 00:27:54;;;;;;;3.10;1.40;;;;;;;-145.63;100.00;61273.97;4780299;30;20038;-66
2023/01/03 00:30:20;;;;;;;4.45;2.03;;;;;;;-145.63;100.00;61273.97;4780638;30;20092;-67
2023/01/03 00:32:46;;;;;;;3.63;2.17;;;;;;;-145.63;100.00;61273.97;4780416;30;20039;-67
2023/01/03 00:35:11;;;;;;;4.03;2.22;;;;;;;-145.63;100.00;61273.97;4779987;30;20316;-67
2023/01/03 00:37:37;;;;;;;3.80;2.10;;;;;;;-145.63;100.00;61273.97;4779373;30;20035;-67
2023/01/03 00:40:04;;;;;;;4.35;2.22;;;;;;;-145.63;100.00;61273.97;4780504;30;20085;-68
2023/01/03 00:43:27;;;;;;;4.43;2.42;;;;;;;-145.63;100.00;61273.97;4777866;30;20028;-68
2023/01/03 00:45:15;;;;;;;4.13;1.88;;;;;;;-145.63;100.00;61273.97;4780339;30;20544;-67
2023/01/03 00:47:40;;;;;;;4.18;2.40;;;;;;;-145.63;100.00;61273.97;4780353;30;20028;-67
2023/01/03 00:50:06;;;;;;;3.35;2.30;;;;;;;-145.63;100.00;61273.97;4780408;30;20058;-67
2023/01/03 00:52:32;;;;;;;4.00;2.40;;;;;;;-145.63;100.00;61273.97;4780251;30;20100;-68
2023/01/03 00:54:57;;;;;;;5.68;2.40;;;;;;;-145.63;100.00;61273.97;4782078;30;20110;-67
2023/01/03 00:57:23;;;;;;;4.70;2.40;;;;;;;-145.63;100.00;61273.97;4781256;30;20046;-68
2023/01/03 00:59:48;;;;;;;3.67;2.33;;;;;;;-145.63;100.00;61273.97;4781111;29;20162;-68
2023/01/03 01:02:14;;;;;;;4.00;2.17;;;;;;;-145.63;100.00;61273.97;4780020;30;20023;-68
2023/01/03 01:04:39;;;;;;;4.18;2.28;;;;;;;-145.63;100.00;61273.97;4779538;30;20035;-65
2023/01/03 01:07:05;;;;;;;3.40;2.17;;;;;;;-145.63;100.00;61273.97;4780176;30;20044;-67
2023/01/03 01:09:35;;;;;;;4.88;2.70;;;;;;;-145.63;100.00;61273.97;4779926;30;20038;-67
2023/01/03 01:12:03;;;;;;;4.40;2.45;;;;;;;-145.63;100.00;61273.97;4779168;30;20328;-67
2023/01/03 01:14:29;;;;;;;7.70;2.78;;;;;;;-145.63;100.00;61273.97;4779961;30;20087;-66
2023/01/03 01:17:01;;;;;;;3.83;2.13;;;;;;;-145.63;100.00;61273.97;4779936;30;20078;-68
2023/01/03 01:19:32;;;;;;;4.45;2.22;;;;;;;-145.63;100.00;61273.97;4780103;30;20306;-66
2023/01/03 01:21:58;;;;;;;4.40;2.45;;;;;;;-145.63;100.00;61273.97;4778587;30;20054;-67
2023/01/03 01:24:24;;;;;;;4.28;2.47;;;;;;;-145.63;100.00;61273.97;4777056;30;20028;-69
2023/01/03 01:26:50;;;;;;;3.97;2.55;;;;;;;-145.63;100.00;61273.97;4779715;30;20039;-68
2023/01/03 01:29:16;;;;;;;3.85;2.75;;;;;;;-145.63;100.00;61273.97;4779420;30;20098;-68
2023/01/03 01:31:43;;;;;;;3.38;2.35;;;;;;;-145.63;100.00;61273.97;4779087;30;20023;-66
2023/01/03 01:34:09;;;;;;;6.60;2.63;;;;;;;-145.63;100.00;61273.97;4779443;30;20103;-66
2023/01/03 01:36:36;;;;;;;3.83;2.53;;;;;;;-145.63;100.00;61273.97;4778466;30;20039;-66
2023/01/03 01:39:05;;;;;;;4.97;3.08;;;;;;;-145.63;100.00;61273.97;4779231;30;20040;-67
2023/01/03 01:44:54;;;;;;;6.18;2.45;;;;;;;-145.63;100.00;61273.97;4779224;30;20315;-66
2023/01/03 01:47:38;;;;;;;4.50;2.30;;;;;;;-145.63;100.00;61273.97;4779401;30;20142;-67
2023/01/03 01:50:28;;;;;;;4.18;2.50;;;;;;;-145.63;100.00;61273.97;4777537;30;20047;-67
2023/01/03 01:53:06;;;;;;;4.93;2.67;;;;;;;-145.63;100.00;61273.97;4780713;30;20035;-69
2023/01/03 01:55:39;;;;;;;4.88;2.88;;;;;;;-145.63;100.00;61273.97;4778525;30;20031;-67
2023/01/03 01:58:07;;;;;;;4.60;2.35;;;;;;;-145.63;100.00;61273.97;4779226;30;20125;-67
2023/01/03 02:00:34;;;;;;;5.95;3.05;;;;;;;-145.63;100.00;61273.97;4793029;30;20043;-68
2023/01/03 02:02:59;;;;;;;5.78;3.05;;;;;;;-145.63;100.00;61273.97;4779372;30;20049;-68
2023/01/03 02:05:27;;;;;;;5.60;2.75;;;;;;;-145.63;100.00;61273.97;4779033;30;20035;-68
2023/01/03 02:07:53;;;;;;;6.47;3.10;;;;;;;-145.63;100.00;61273.97;4779007;30;20035;-68
2023/01/03 02:10:34;;;;;;;5.30;2.58;;;;;;;-145.63;100.00;61273.97;4778895;30;20035;-68
2023/01/03 02:13:32;;;;;;;4.10;2.88;;;;;;;-145.63;100.00;61273.97;4777559;30;20047;-69
2023/01/03 02:16:16;;;;;;;4.40;2.92;;;;;;;-145.63;100.00;61273.97;4776267;30;20093;-68
2023/01/03 02:19:03;;;;;;;6.65;3.00;;;;;;;-145.63;100.00;61273.97;4777359;30;20035;-68
2023/01/03 02:21:54;;;;;;;5.57;2.88;;;;;;;-145.63;100.00;61273.97;4776894;30;20099;-69
2023/01/03 02:24:28;;;;;;;7.03;3.42;;;;;;;-145.63;100.00;61273.97;4776557;30;20031;-67
2023/01/03 02:27:15;;;;;;;5.15;2.88;;;;;;;-145.63;100.00;61273.97;4778869;30;20348;-67
2023/01/03 02:30:19;;;;;;;4.53;2.78;;;;;;;-145.63;100.00;61273.97;4776789;30;20092;-67
2023/01/03 02:32:56;;;;;;;3.28;2.50;;;;;;;-145.63;100.00;61273.97;4777369;30;20032;-67
2023/01/03 02:35:41;;;;;;;3.58;2.55;;;;;;;-145.63;100.00;61273.97;4776971;30;20436;-68
2023/01/03 02:38:12;;;;;;;5.15;2.83;;;;;;;-145.63;100.00;61273.97;4778685;30;20032;-68
2023/01/03 02:40:53;;;;;;;4.68;2.70;;;;;;;-145.63;100.00;61273.97;4778745;30;20350;-68
2023/01/03 02:43:28;;;;;;;4.70;2.40;;;;;;;-145.63;100.00;61273.97;4776289;30;20142;-68
2023/01/03 02:46:18;;;;;;;4.63;2.42;;;;;;;-145.63;100.00;61273.97;4778434;30;20059;-68
2023/01/03 02:49:09;;;;;;;7.10;2.90;;;;;;;-145.63;100.00;61273.97;4776653;30;20040;-68
2023/01/03 02:51:48;;;;;;;4.82;2.90;;;;;;;-145.63;100.00;61273.97;4780023;30;20031;-67
2023/01/03 02:54:29;;;;;;;4.13;2.65;;;;;;;-145.63;100.00;61273.97;4784086;30;20035;-67
2023/01/03 02:57:06;;;;;;;5.63;2.42;;;;;;;-145.63;100.00;61273.97;4782218;30;20036;-68
2023/01/03 02:59:45;;;;;;;5.00;2.70;;;;;;;-145.63;100.00;61273.97;4782268;30;20088;-67
2023/01/03 03:02:13;;;;;;;7.03;2.67;;;;;;;-145.63;100.00;61273.97;4781187;30;20036;-67
2023/01/03 03:04:41;;;;;;;7.18;2.95;;;;;;;-145.63;100.00;61273.97;4791447;30;20026;-67
2023/01/03 03:07:16;;;;;;;4.90;2.22;;;;;;;-145.63;100.00;61273.97;4782095;30;20044;-67
2023/01/03 03:15:16;;;;;;;6.20;2.50;;;;;;;-145.63;100.00;61273.97;4781276;30;20036;-67
2023/01/03 03:17:44;;;;;;;4.70;2.40;;;;;;;-145.63;100.00;61273.97;4781894;30;20051;-67
2023/01/03 03:25:59;;;;;;;5.43;2.60;;;;;;;-145.63;100.00;61273.97;4781028;30;20043;-67
2023/01/03 03:28:36;;;;;;;3.97;2.35;;;;;;;-145.63;100.00;61273.97;4781759;30;20035;-66
2023/01/03 03:31:07;;;;;;;3.80;2.05;;;;;;;-145.63;100.00;61273.97;4779594;30;20063;-66
2023/01/03 03:33:38;;;;;;;5.65;1.90;;;;;;;-145.63;100.00;61273.97;4781559;30;20135;-68
2023/01/03 03:36:17;;;;;;;4.63;2.28;;;;;;;-145.63;100.00;61273.97;4779615;30;20071;-67
2023/01/03 03:38:44;;;;;;;5.78;2.17;;;;;;;-145.63;100.00;61273.97;4778939;30;20039;-68
2023/01/03 03:47:24;;;;;;;2.90;1.70;;;;;;;-145.63;100.00;61273.97;4779931;30;20146;-67
2023/01/03 03:49:53;;;;;;;3.40;1.90;;;;;;;-145.63;100.00;61273.97;4780597;30;20140;-67
2023/01/03 03:52:25;;;;;;;6.20;2.30;;;;;;;-145.63;100.00;61273.97;4778873;30;20344;-67
2023/01/03 03:55:25;;;;;;;3.08;2.00;;;;;;;-145.63;100.00;61273.97;4783504;30;20031;-67
2023/01/03 03:58:17;;;;;;;3.10;1.98;;;;;;;-145.63;100.00;61273.97;4775065;30;20059;-66
2023/01/03 04:00:46;;;;;;;3.25;1.92;;;;;;;-145.63;100.00;61273.97;4779220;30;20039;-65
2023/01/03 04:03:13;;;;;;;5.28;2.13;;;;;;;-145.63;100.00;61273.97;4780477;29;20031;-67
2023/01/03 04:05:43;;;;;;;3.80;2.03;;;;;;;-145.63;100.00;61273.97;4780513;30;20032;-67
2023/01/03 04:08:09;;;;;;;3.88;2.28;;;;;;;-145.63;100.00;61273.97;4780447;30;20039;-66
2023/01/03 04:10:35;;;;;;;2.72;1.90;;;;;;;-145.63;100.00;61273.97;4779951;30;20037;-68
2023/01/03 04:13:01;;;;;;;2.95;1.90;;;;;;;-145.63;100.00;61273.97;4779618;30;20505;-69
2023/01/03 04:15:27;;;;;;;3.25;1.80;;;;;;;-145.63;100.00;61273.97;4781000;30;20087;-67
2023/01/03 04:17:52;;;;;;;2.50;1.92;;;;;;;-145.63;100.00;61273.97;4780768;30;20048;-67
2023/01/03 04:20:18;;;;;;;2.13;1.85;;;;;;;-145.63;100.00;61273.97;4793771;30;20323;-66
2023/01/03 04:22:44;;;;;;;3.67;2.10;;;;;;;-145.63;100.00;61273.97;4794715;30;20047;-67
2023/01/03 04:25:09;;;;;;;3.00;2.13;;;;;;;-145.63;100.00;61273.97;4779733;30;20043;-67
2023/01/03 04:27:35;;;;;;;3.42;2.33;;;;;;;-145.63;100.00;61273.97;4780542;30;20048;-67
2023/01/03 04:30:01;;;;;;;3.42;2.13;;;;;;;-145.63;100.00;61273.97;4778974;30;20130;-68
2023/01/03 04:32:26;;;;;;;4.65;2.58;;;;;;;-145.63;100.00;61273.97;4780542;30;20043;-68
2023/01/03 04:34:52;;;;;;;5.50;2.40;;;;;;;-145.63;100.00;61273.97;4780372;30;20331;-68
2023/01/03 04:37:18;;;;;;;3.95;2.47;;;;;;;-145.63;100.00;61273.97;4780365;30;20036;-67
2023/01/03 04:39:43;;;;;;;3.40;2.45;;;;;;;-145.63;100.00;61273.97;4780523;30;20034;-68
2023/01/03 04:44:53;;;;;;;7.50;2.30;;;;;;;-145.63;100.00;61273.97;4776938;30;20070;-68
2023/01/03 04:47:19;;;;;;;4.40;2.65;;;;;;;-145.63;100.00;61273.97;4790319;29;20036;-68
2023/01/03 04:49:47;;;;;;;4.78;2.60;;;;;;;-145.63;100.00;61273.97;4780568;30;20055;-67
2023/01/03 04:52:16;;;;;;;3.83;2.47;;;;;;;-145.63;100.00;61273.97;4794167;30;20457;-68
2023/01/03 04:54:42;;;;;;;7.03;2.85;;;;;;;-145.63;100.00;61273.97;4777434;30;20024;-68
2023/01/03 04:57:08;;;;;;;5.07;2.58;;;;;;;-145.63;100.00;61273.97;4778079;30;20079;-68
2023/01/03 04:59:35;;;;;;;6.97;3.10;;;;;;;-145.63;100.00;61273.97;4778567;30;20063;-68
2023/01/03 05:02:01;;;;;;;7.60;3.50;;;;;;;-145.63;100.00;61273.97;4772744;30;20059;-68
2023/01/03 05:04:28;;;;;;;7.07;3.20;;;;;;;-145.63;100.00;61273.97;4780246;30;20048;-68
2023/01/03 05:06:55;;;;;;;7.75;3.58;;;;;;;-145.63;100.00;61273.97;4779733;30;20047;-68
2023/01/03 05:09:20;;;;;;;8.57;3.22;;;;;;;-145.63;100.00;61273.97;4780782;30;20036;-68
2023/01/03 05:11:46;;;;;;;7.47;4.05;;;;;;;-145.63;100.00;61273.97;4780330;30;20042;-68
2023/01/03 05:14:12;;;;;;;4.82;3.38;;;;;;;-145.63;100.00;61273.97;4777959;30;20093;-68
2023/01/03 05:16:37;;;;;;;8.82;4.25;;;;;;;-145.63;100.00;61273.97;4763356;30;20039;-68
2023/01/03 05:19:03;;;;;;;8.23;3.92;;;;;;;-145.63;100.00;61273.97;4793966;30;20040;-67
2023/01/03 05:26:59;;;;;;;7.10;4.20;;;;;;;-145.63;100.00;61273.97;4779819;30;20043;-66
2023/01/03 05:29:27;;;;;;;9.32;4.65;;;;;;;-145.63;100.00;61273.97;4782554;30;20046;-68
2023/01/03 05:31:53;;;;;;;7.03;3.95;;;;;;;-145.63;100.00;61273.97;4789670;30;20250;-68
2023/01/03 05:34:19;;;;;;;7.22;4.40;;;;;;;-145.63;100.00;61273.97;4803495;29;20077;-67
2023/01/03 05:36:45;;;;;;;7.93;4.38;;;;;;;-145.63;100.00;61273.97;4788744;29;20031;-67
2023/01/03 05:39:11;;;;;;;7.55;3.88;;;;;;;-145.63;100.00;61273.97;4789425;29;20283;-68
2023/01/03 05:44:21;;;;;;;7.40;4.10;;;;;;;-145.63;100.00;61273.97;4787115;30;20039;-67
2023/01/03 05:46:46;;;;;;;5.95;3.80;;;;;;;-145.63;100.00;61273.97;4780541;30;20085;-67
2023/01/03 05:49:12;;;;;;;9.30;5.10;;;;;;;-145.63;100.00;61273.97;4780629;30;20092;-67
2023/01/03 05:51:37;;;;;;;6.65;4.65;;;;;;;-145.63;100.00;61273.97;4780329;30;20295;-67
2023/01/03 05:54:03;;;;;;;6.78;4.20;;;;;;;-145.63;100.00;61273.97;4791007;30;20026;-68
2023/01/03 05:56:30;;;;;;;6.57;4.15;;;;;;;-145.63;100.00;61273.97;4792871;29;20391;-67
2023/01/03 05:58:56;;;;;;;8.13;4.50;;;;;;;-145.63;100.00;61273.97;4780196;30;20058;-67
2023/01/03 06:01:21;;;;;;;5.68;3.60;;;;;;;-145.63;100.00;61273.97;4780406;30;20212;-68
2023/01/03 06:03:47;;;;;;;5.43;3.40;;;;;;;-145.63;100.00;61273.97;4780173;30;20056;-68
2023/01/03 06:06:14;;;;;;;5.57;3.50;;;;;;;-145.63;100.00;61273.97;4780162;30;20269;-68
2023/01/03 06:08:40;;;;;;;6.53;4.90;;;;;;;-145.63;100.00;61273.97;4780135;30;20043;-68
2023/01/03 06:11:07;;;;;;;8.00;4.30;;;;;;;-145.63;100.00;61273.97;4780104;30;20082;-68
2023/01/03 06:13:33;;;;;;;4.70;3.90;;;;;;;-145.63;100.00;61273.97;4780083;30;20046;-67
2023/01/03 06:18:55;;;;;;;6.72;3.97;;;;;;;-145.63;100.00;61273.97;4780067;30;20212;-68
2023/01/03 06:21:21;;;;;;;5.68;4.45;;;;;;;-145.63;100.00;61273.97;4780124;30;20054;-68
2023/01/03 06:23:46;;;;;;;5.88;4.38;;;;;;;-145.63;100.00;61273.97;4787580;30;20040;-68
2023/01/03 06:26:17;;;;;;;5.50;4.63;;;;;;;-145.63;100.00;61273.97;4779149;30;20261;-69
2023/01/03 06:28:43;;;;;;;6.88;5.18;;;;;;;-145.63;100.00;61273.97;4779686;30;20111;-69
2023/01/03 06:31:09;;;;;;;6.10;4.32;;;;;;;-145.63;100.00;61273.97;4768975;30;20115;-68
2023/01/03 06:33:35;;;;;;;6.30;4.88;;;;;;;-145.63;100.00;61273.97;4779587;30;20039;-70
2023/01/03 06:36:07;;;;;;;6.00;4.63;;;;;;;-145.63;100.00;61273.97;4779684;30;20387;-69
2023/01/03 06:38:34;;;;;;;6.63;5.00;;;;;;;-145.63;100.00;61273.97;4778742;30;20046;-70
2023/01/03 06:41:00;;;;;;;6.32;5.32;;;;;;;-145.63;100.00;61273.97;4779840;30;20038;-68
2023/01/03 06:43:26;;;;;;;7.57;5.18;;;;;;;-145.63;100.00;61273.97;4779560;30;20077;-68
2023/01/03 06:54:07;;;;;;;7.03;5.07;;;;;;;-145.63;100.00;61273.97;4790607;30;20039;-67
2023/01/03 06:56:33;;;;;;;7.15;6.00;;;;;;;-145.63;100.00;61273.97;4792096;29;20046;-69
2023/01/03 06:58:59;;;;;;;7.78;5.57;;;;;;;-145.63;100.00;61273.97;4779482;30;20035;-67
2023/01/03 07:01:24;;;;;;;6.75;5.47;;;;;;;-145.63;100.00;61273.97;4779026;30;20350;-67
2023/01/03 07:03:50;;;;;;;6.20;4.97;;;;;;;-145.63;100.00;61273.97;4779215;30;20228;-68
2023/01/03 07:06:15;;;;;;;10.07;5.28;;;;;;;-145.63;100.00;61273.97;4791694;30;20419;-67
2023/01/03 07:08:41;;;;;;;8.68;5.53;;;;;;;-145.63;100.00;61273.97;4772872;30;20036;-66
2023/01/03 07:11:07;;;;;;;6.20;4.68;;;;;;;-145.63;100.00;61273.97;4778592;30;20324;-67
2023/01/03 07:16:18;;;;;;;8.25;5.40;;;;;;;-145.63;100.00;61273.97;4768034;30;20116;-69
2023/01/03 07:18:44;;;;;;;7.43;5.40;;;;;;;-145.63;100.00;61273.97;4778046;30;20047;-67
2023/01/03 07:21:11;;;;;;;6.93;4.93;;;;;;;-145.63;100.00;61273.97;4779531;30;20094;-71
2023/01/03 07:23:36;;;;;;;7.28;5.00;;;;;;;-145.63;100.00;61273.97;4777663;30;20046;-69
2023/01/03 07:26:02;;;;;;;6.10;4.93;;;;;;;-145.63;100.00;61273.97;4770829;30;20040;-68
2023/01/03 07:28:28;;;;;;;7.05;5.13;;;;;;;-145.63;100.00;61273.97;4779419;30;20046;-67
2023/01/03 07:31:00;;;;;;;5.40;4.40;;;;;;;-145.63;100.00;61273.97;4779036;30;20327;-68
2023/01/03 07:33:45;;;;;;;;;;;;;;;-145.63;100.00;61273.97;4778609;30;20089;-68
2023/01/03 07:36:13;;;;;;;6.22;4.70;;;;;;;-145.63;100.00;61273.97;4778805;30;20000;-70
2023/01/03 07:38:40;;;;;;;10.57;5.15;;;;;;;-145.63;100.00;61273.97;4781474;30;20039;-69
2023/01/03 07:41:09;;;;;;;5.95;5.03;;;;;;;-145.63;100.00;61273.97;4784743;30;20303;-70
2023/01/03 07:43:36;;;;;;;8.35;5.07;;;;;;;-145.63;100.00;61273.97;4782555;30;20081;-71
2023/01/03 07:46:06;;;;;;;7.55;4.72;;;;;;;-145.63;100.00;61273.97;4781100;30;20031;-69
2023/01/03 07:48:33;;;;;;;7.28;5.05;;;;;;;-145.63;100.00;61273.97;4778108;30;20058;-70
2023/01/03 07:50:59;;;;;;;6.88;4.93;;;;;;;-145.63;100.00;61273.97;4772521;30;20085;-71
2023/01/03 07:53:25;;;;;;;6.80;4.70;;;;;;;-145.63;100.00;61273.97;4788171;30;20031;-70
2023/01/03 07:55:51;;;;;;;8.13;5.80;;;;;;;-145.63;100.00;61273.97;4800158;29;20034;-69
2023/01/03 07:58:16;;;;;;;7.57;5.70;;;;;;;-145.63;100.00;61273.97;4782381;29;20046;-69
2023/01/03 08:00:42;;;;;;;7.03;5.30;;;;;;;-145.63;100.00;61273.97;4782231;30;20284;-70
2023/01/03 08:03:08;;;;;;;10.05;6.15;;;;;;;-145.63;100.00;61273.97;4782047;30;20035;-70
2023/01/03 08:05:34;;;;;;;6.80;5.82;;;;;;;-145.63;100.00;61273.97;4781917;30;20031;-70
2023/01/03 08:08:01;;;;;;;8.75;5.40;;;;;;;-145.63;100.00;61273.97;4781177;30;20046;-71
2023/01/03 08:13:16;;;;;;;7.72;5.60;;;;;;;-145.63;100.00;61273.97;4781691;30;20047;-69
2023/01/03 08:16:03;;;;;;;6.80;5.38;;;;;;;-145.63;100.00;61273.97;4781670;30;20031;-70
2023/01/03 08:18:28;;;;;;;6.10;5.25;;;;;;;-145.63;100.00;61273.97;4780605;30;20342;-70
2023/01/03 08:20:56;;;;;;;6.85;4.70;;;;;;;-145.63;100.00;61273.97;4781748;30;20040;-70
2023/01/03 08:23:22;;;;;;;9.10;5.80;;;;;;;-145.63;100.00;61273.97;4790461;30;20418;-69
2023/01/03 08:25:48;;;;;;;5.80;5.00;;;;;;;-145.63;100.00;61273.97;4781650;30;20031;-70
2023/01/03 08:28:14;;;;;;;5.13;4.45;;;;;;;-145.63;100.00;61273.97;4780861;30;20054;-70
2023/01/03 08:30:43;;;;;;;5.45;4.65;;;;;;;-145.63;100.00;61273.97;4781730;30;20105;-70
2023/01/03 08:33:12;;;;;;;7.80;5.10;;;;;;;-145.63;100.00;61273.97;4781901;30;20055;-69
2023/01/03 08:35:41;;;;;;;6.72;5.15;;;;;;;-145.63;100.00;61273.97;4780552;30;20112;-70
2023/01/03 08:38:11;;;;;;;6.30;5.05;;;;;;;-145.63;100.00;61273.97;4780754;30;20058;-69
2023/01/03 08:40:40;;;;;;;5.00;4.55;;;;;;;-145.63;100.00;61273.97;4777999;30;20092;-69
2023/01/03 08:43:06;;;;;;;5.63;5.03;;;;;;;-145.63;100.00;61273.97;4779991;30;20120;-70
2023/01/03 08:45:32;;;;;;;5.82;5.05;;;;;;;-145.63;100.00;61273.97;4795034;30;20192;-69
2023/01/03 08:48:01;;;;;;;6.80;5.22;;;;;;;-145.63;100.00;61273.97;4781184;30;20036;-70
2023/01/03 08:50:29;;;;;;;6.22;5.22;;;;;;;-145.63;100.00;61273.97;4780810;30;20044;-71
2023/01/03 08:52:55;;;;;;;6.63;5.53;;;;;;;-145.63;100.00;61273.97;4783706;30;20145;-70
2023/01/03 08:55:21;;;;;;;6.60;5.07;;;;;;;-145.63;100.00;61273.97;4799203;29;20034;-70
2023/01/03 08:57:47;;;;;;;7.05;5.82;;;;;;;-145.63;100.00;61273.97;4785497;29;20051;-70
2023/01/03 09:00:13;;;;;;;7.32;4.97;;;;;;;-145.63;100.00;61273.97;4780858;30;20277;-68
2023/01/03 09:02:39;;;;;;;6.03;5.45;;;;;;;-145.63;100.00;61273.97;4780006;30;20035;-70
2023/01/03 09:05:05;;;;;;;7.10;5.63;;;;;;;-145.63;100.00;61273.97;4787293;30;20035;-70
2023/01/03 09:07:30;;;;;;;6.05;5.45;;;;;;;-145.63;100.00;61273.97;4780781;30;20032;-71
2023/01/03 09:09:56;;;;;;;7.93;6.30;;;;;;;-145.63;100.00;61273.97;4780814;30;20185;-70
2023/01/03 09:12:21;;;;;;;6.30;5.40;;;;;;;-145.63;100.00;61273.97;4780737;30;20032;-70
2023/01/03 09:14:47;;;;;;;7.20;6.50;;;;;;;-145.63;100.00;61273.97;4781199;30;20085;-69
2023/01/03 09:17:13;;;;;;;6.13;5.53;;;;;;;-145.63;100.00;61273.97;4780751;30;20031;-70
2023/01/03 09:19:38;;;;;;;6.45;5.30;;;;;;;-145.63;100.00;61273.97;4779806;30;20077;-70
2023/01/03 09:22:04;;;;;;;7.88;5.95;;;;;;;-145.63;100.00;61273.97;4783228;30;20070;-70
2023/01/03 09:24:29;;;;;;;6.40;5.80;;;;;;;-145.63;100.00;61273.97;4776795;29;20143;-71
2023/01/03 09:26:55;;;;;;;6.75;6.05;;;;;;;-145.63;100.00;61273.97;4776450;30;20036;-70
2023/01/03 09:29:21;;;;;;;10.15;6.35;;;;;;;-145.63;100.00;61273.97;4780684;30;20031;-71
2023/01/03 09:31:46;;;;;;;7.38;6.25;;;;;;;-145.63;100.00;61273.97;4780676;30;20043;-70
2023/01/03 09:34:12;;;;;;;7.10;6.40;;;;;;;-145.63;100.00;61273.97;4780492;30;20299;-69
2023/01/03 09:36:39;;;;;;;8.13;6.47;;;;;;;-145.63;100.00;61273.97;4780526;30;20090;-71
2023/01/03 09:39:05;;;;;;;9.38;6.90;;;;;;;-145.63;100.00;61273.97;4780775;30;20088;-70
2023/01/03 09:41:32;;;;;;;7.80;7.00;;;;;;;-145.63;100.00;61273.97;4780314;30;20032;-70
2023/01/03 09:44:03;;;;;;;9.38;6.90;;;;;;;-145.63;100.00;61273.97;4780599;30;20031;-71
2023/01/03 09:46:31;;;;;;;8.52;7.35;;;;;;;-145.63;100.00;61273.97;4780321;30;20042;-70
2023/01/03 09:48:58;;;;;;;7.85;7.05;;;;;;;-145.63;100.00;61273.97;4794434;30;20054;-71
2023/01/03 10:03:50;;;;;;;7.82;7.03;;;;;;;-145.63;100.00;61273.97;4780091;30;20035;-68
2023/01/03 10:06:28;;;;;;;8.30;7.30;;;;;;;-145.63;100.00;61273.97;4772560;30;20051;-71
2023/01/03 10:09:18;;;;;;;8.40;6.82;;;;;;;-145.63;100.00;61273.97;4780079;30;20036;-70
2023/01/03 10:12:18;;;;;;;9.55;6.68;;;;;;;-145.63;100.00;61273.97;4776950;30;20058;-70
2023/01/03 10:14:55;;;;;;;9.70;8.15;;;;;;;-145.63;100.00;61273.97;4767229;30;20039;-70
2023/01/03 10:17:48;;;;;;;9.05;7.28;;;;;;;-145.63;100.00;61273.97;4777893;30;20059;-70
2023/01/03 10:20:44;;;;;;;7.88;7.00;;;;;;;-145.63;100.00;61273.97;4779838;30;20051;-70
2023/01/03 10:23:10;;;;;;;9.02;7.20;;;;;;;-145.63;100.00;61273.97;4787565;30;20062;-70
2023/01/03 10:25:38;;;;;;;7.93;7.15;;;;;;;-145.63;100.00;61273.97;4778645;30;20347;-70
2023/01/03 10:28:36;;;;;;;8.55;7.00;;;;;;;-145.63;100.00;61273.97;4778757;30;20036;-70
2023/01/03 10:31:24;;;;;;;8.05;6.85;;;;;;;-145.63;100.00;61273.97;4779753;30;20074;-70
2023/01/03 10:33:49;;;;;;;7.57;6.80;;;;;;;-145.63;100.00;61273.97;4779611;30;20038;-70
2023/01/03 10:36:18;;;;;;;8.65;7.38;;;;;;;-145.63;100.00;61273.97;4793640;30;20055;-69
2023/01/03 10:38:44;;;;;;;8.35;7.35;;;;;;;-145.63;100.00;61273.97;4779884;30;20040;-70
2023/01/03 10:41:22;;;;;;;8.45;7.65;;;;;;;-145.63;100.00;61273.97;4793452;29;20284;-69
2023/01/03 10:44:05;;;;;;;8.90;7.63;;;;;;;-145.63;100.00;61273.97;4779800;30;20039;-70
2023/01/03 10:46:31;;;;;;;8.10;6.88;;;;;;;-145.63;100.00;61273.97;4761503;30;20155;-71
2023/01/03 10:49:16;;;;;;;8.68;7.80;;;;;;;-145.63;100.00;61273.97;4780880;30;20341;-71
2023/01/03 10:52:01;;;;;;;8.48;7.57;;;;;;;-145.63;100.00;61273.97;4773720;30;20067;-72
2023/01/03 10:54:55;;;;;;;10.00;8.48;;;;;;;-145.63;100.00;61273.97;4793049;30;20031;-70
2023/01/03 10:57:42;;;;;;;9.95;8.18;;;;;;;-145.63;100.00;61273.97;4786566;29;20090;-70
2023/01/03 11:00:23;;;;;;;9.48;8.10;;;;;;;-145.63;100.00;61273.97;4779496;30;20039;-69
2023/01/03 11:03:10;;;;;;;8.33;7.53;;;;;;;-145.63;100.00;61273.97;4779699;30;20039;-72
2023/01/03 11:05:36;;;;;;;11.48;8.98;;;;;;;-145.63;100.00;61273.97;4779691;30;20059;-70
2023/01/03 11:08:12;;;;;;;12.13;9.63;;;;;;;-145.63;100.00;61273.97;4779763;30;20099;-71
2023/01/03 11:10:48;;;;;;;9.90;8.85;;;;;;;-145.63;100.00;61273.97;4761927;30;20039;-70
2023/01/03 11:13:26;;;;;;;10.05;8.95;;;;;;;-145.63;100.00;61273.97;4779825;30;20058;-69
2023/01/03 11:15:57;;;;;;;11.15;9.10;;;;;;;-145.63;100.00;61273.97;4782951;30;20043;-71
2023/01/03 11:18:26;;;;;;;11.02;9.32;;;;;;;-145.63;100.00;61273.97;4782851;30;20047;-70
2023/01/03 11:20:55;;;;;;;10.55;9.38;;;;;;;-145.63;100.00;61273.97;4782793;30;20031;-69
2023/01/03 11:23:49;;;;;;;10.75;9.35;;;;;;;-145.63;100.00;61273.97;4792868;30;20031;-69
2023/01/03 11:26:42;;;;;;;13.90;10.02;;;;;;;-145.63;100.00;61273.97;4782539;30;20031;-68
2023/01/03 11:29:30;;;;;;;13.98;10.35;;;;;;;-145.63;100.00;61273.97;4782730;30;20066;-71
2023/01/03 11:32:29;;;;;;;12.90;9.93;;;;;;;-145.63;100.00;61273.97;4781295;30;20307;-68
2023/01/03 11:35:17;;;;;;;12.82;10.60;;;;;;;-145.63;100.00;61273.97;4764805;30;20040;-69
2023/01/03 11:38:06;;;;;;;12.40;10.73;;;;;;;-145.63;100.00;61273.97;4764680;30;20039;-69
2023/01/03 11:41:00;;;;;;;13.88;10.35;;;;;;;-145.63;100.00;61273.97;4781811;30;20056;-68
2023/01/03 11:43:53;;;;;;;14.57;10.82;;;;;;;-145.63;100.00;61273.97;4719524;30;20221;-70
2023/01/03 11:46:28;;;;;;;14.18;11.05;;;;;;;-145.63;100.00;61273.97;4782297;30;20028;-69
2023/01/03 11:49:05;;;;;;;12.00;9.98;;;;;;;-145.63;100.00;61273.97;4782208;30;20366;-69
2023/01/03 11:51:51;;;;;;;14.30;11.05;;;;;;;-145.63;100.00;61273.97;4782033;30;20081;-69
2023/01/03 11:54:54;;;;;;;15.25;11.60;;;;;;;-145.63;100.00;61273.97;4785088;30;20059;-69
2023/01/03 11:57:32;;;;;;;25.10;14.75;;;;;;;-145.63;100.00;61273.97;4791303;29;20043;-70
2023/01/03 12:00:21;;;;;;;15.10;12.32;;;;;;;-145.63;100.00;61273.97;4781891;30;20036;-70
2023/01/03 12:02:52;;;;;;;15.75;13.02;;;;;;;-145.63;100.00;61273.97;4782068;30;20050;-70
2023/01/03 12:05:47;;;;;;;14.80;11.10;;;;;;;-145.63;100.00;61273.97;4782012;30;20343;-70
2023/01/03 12:08:31;;;;;;;17.63;12.18;;;;;;;-145.63;100.00;61273.97;4776554;30;20059;-69
2023/01/03 12:11:11;;;;;;;19.08;12.82;;;;;;;-145.63;100.00;61273.97;4789826;30;20046;-70
2023/01/03 12:13:37;;;;;;;18.38;12.40;;;;;;;-145.63;100.00;61273.97;4791408;30;20035;-69
2023/01/03 12:16:22;;;;;;;21.08;12.63;;;;;;;-145.63;100.00;61273.97;4789912;30;20045;-70
2023/01/03 12:19:01;;;;;;;18.90;12.65;;;;;;;-145.63;100.00;61273.97;4787511;30;20041;-70
2023/01/03 12:21:37;;;;;;;21.50;14.02;;;;;;;-145.63;100.00;61273.97;4789060;30;20032;-69
2023/01/03 12:24:16;;;;;;;19.67;12.88;;;;;;;-145.63;100.00;61273.97;4772258;30;20065;-70
2023/01/03 12:26:51;;;;;;;24.35;15.35;;;;;;;-145.63;100.00;61273.97;4787749;30;20062;-71